sensor_id;sensor_type;location;lat;lon;timestamp;temperature;humidity
46932;DHT22;32670;51.464;11.964;2023-03-03T00:01:14;20.70;46.20
46932;DHT22;32670;51.464;11.964;2023-03-03T00:03:40;20.80;46.40
46932;DHT22;32670;51.464;11.964;2023-03-03T00:06:09;20.80;46.40
46932;DHT22;32670;51.464;11.964;2023-03-03T00:08:34;20.80;46.30
46932;DHT22;32670;51.464;11.964;2023-03-03T00:11:00;20.80;46.40
46932;DHT22;32670;51.464;11.964;2023-03-03T00:13:28;20.80;46.40
46932;DHT22;32670;51.464;11.964;2023-03-03T00:16:09;20.80;46.50
46932;DHT22;32670;51.464;11.964;2023-03-03T00:18:36;20.80;46.50
46932;DHT22;32670;51.464;11.964;2023-03-03T00:21:54;20.80;46.50
46932;DHT22;32670;51.464;11.964;2023-03-03T00:24:23;20.80;46.90
46932;DHT22;32670;51.464;11.964;2023-03-03T00:26:51;20.70;46.80
46932;DHT22;32670;51.464;11.964;2023-03-03T00:29:29;20.80;46.70
46932;DHT22;32670;51.464;11.964;2023-03-03T00:34:40;20.80;46.80
46932;DHT22;32670;51.464;11.964;2023-03-03T00:37:21;20.80;46.80
46932;DHT22;32670;51.464;11.964;2023-03-03T00:39:47;20.80;47.00
46932;DHT22;32670;51.464;11.964;2023-03-03T00:42:17;20.80;46.90
46932;DHT22;32670;51.464;11.964;2023-03-03T00:44:47;20.80;47.00
46932;DHT22;32670;51.464;11.964;2023-03-03T00:47:35;20.80;47.10
46932;DHT22;32670;51.464;11.964;2023-03-03T00:52:34;20.80;47.30
46932;DHT22;32670;51.464;11.964;2023-03-03T00:54:59;20.80;47.20
46932;DHT22;32670;51.464;11.964;2023-03-03T00:57:25;20.80;47.20
46932;DHT22;32670;51.464;11.964;2023-03-03T00:59:50;20.80;47.20
46932;DHT22;32670;51.464;11.964;2023-03-03T01:02:16;20.80;47.20
46932;DHT22;32670;51.464;11.964;2023-03-03T01:04:43;20.80;47.20
46932;DHT22;32670;51.464;11.964;2023-03-03T01:07:12;20.90;47.50
46932;DHT22;32670;51.464;11.964;2023-03-03T01:09:38;20.80;47.20
46932;DHT22;32670;51.464;11.964;2023-03-03T01:12:04;20.80;47.20
46932;DHT22;32670;51.464;11.964;2023-03-03T01:14:30;20.90;47.30
46932;DHT22;32670;51.464;11.964;2023-03-03T01:16:55;20.90;47.40
46932;DHT22;32670;51.464;11.964;2023-03-03T01:19:21;20.90;47.30
46932;DHT22;32670;51.464;11.964;2023-03-03T01:21:46;20.90;47.20
46932;DHT22;32670;51.464;11.964;2023-03-03T01:24:12;20.90;47.40
46932;DHT22;32670;51.464;11.964;2023-03-03T01:26:37;20.90;47.50
46932;DHT22;32670;51.464;11.964;2023-03-03T01:29:03;20.90;47.30
46932;DHT22;32670;51.464;11.964;2023-03-03T01:31:28;20.90;47.30
46932;DHT22;32670;51.464;11.964;2023-03-03T01:33:53;20.90;47.50
46932;DHT22;32670;51.464;11.964;2023-03-03T01:36:24;20.90;47.50
46932;DHT22;32670;51.464;11.964;2023-03-03T01:38:50;20.90;47.60
46932;DHT22;32670;51.464;11.964;2023-03-03T01:41:15;20.90;47.60
46932;DHT22;32670;51.464;11.964;2023-03-03T01:43:47;21.00;47.70
46932;DHT22;32670;51.464;11.964;2023-03-03T01:46:29;20.90;47.80
46932;DHT22;32670;51.464;11.964;2023-03-03T01:48:59;20.90;47.90
46932;DHT22;32670;51.464;11.964;2023-03-03T01:51:47;20.90;47.80
46932;DHT22;32670;51.464;11.964;2023-03-03T01:54:39;20.90;47.90
46932;DHT22;32670;51.464;11.964;2023-03-03T01:57:12;20.90;48.40
46932;DHT22;32670;51.464;11.964;2023-03-03T01:59:43;21.00;48.00
46932;DHT22;32670;51.464;11.964;2023-03-03T02:02:10;21.00;48.60
46932;DHT22;32670;51.464;11.964;2023-03-03T02:04:35;21.00;48.00
46932;DHT22;32670;51.464;11.964;2023-03-03T02:07:05;20.90;47.90
46932;DHT22;32670;51.464;11.964;2023-03-03T02:09:50;21.00;48.00
46932;DHT22;32670;51.464;11.964;2023-03-03T02:12:18;21.00;48.00
46932;DHT22;32670;51.464;11.964;2023-03-03T02:14:45;21.00;48.10
46932;DHT22;32670;51.464;11.964;2023-03-03T02:17:11;21.00;48.00
46932;DHT22;32670;51.464;11.964;2023-03-03T02:19:57;21.00;48.10
46932;DHT22;32670;51.464;11.964;2023-03-03T02:22:41;21.00;48.20
46932;DHT22;32670;51.464;11.964;2023-03-03T02:25:12;21.00;48.30
46932;DHT22;32670;51.464;11.964;2023-03-03T02:27:38;21.00;48.30
46932;DHT22;32670;51.464;11.964;2023-03-03T02:30:14;21.00;48.30
46932;DHT22;32670;51.464;11.964;2023-03-03T02:32:40;21.00;48.50
46932;DHT22;32670;51.464;11.964;2023-03-03T02:35:35;21.00;48.50
46932;DHT22;32670;51.464;11.964;2023-03-03T02:38:21;21.00;48.70
46932;DHT22;32670;51.464;11.964;2023-03-03T02:43:26;21.00;48.50
46932;DHT22;32670;51.464;11.964;2023-03-03T02:45:55;21.00;48.50
46932;DHT22;32670;51.464;11.964;2023-03-03T02:48:20;21.00;48.50
46932;DHT22;32670;51.464;11.964;2023-03-03T02:50:46;21.00;48.50
46932;DHT22;32670;51.464;11.964;2023-03-03T02:53:11;21.00;48.50
46932;DHT22;32670;51.464;11.964;2023-03-03T02:55:37;21.00;48.60
46932;DHT22;32670;51.464;11.964;2023-03-03T02:58:02;21.00;48.50
46932;DHT22;32670;51.464;11.964;2023-03-03T03:00:28;21.00;48.50
46932;DHT22;32670;51.464;11.964;2023-03-03T03:02:53;21.00;48.70
46932;DHT22;32670;51.464;11.964;2023-03-03T03:05:19;21.00;48.70
46932;DHT22;32670;51.464;11.964;2023-03-03T03:07:44;21.00;48.60
46932;DHT22;32670;51.464;11.964;2023-03-03T03:10:10;21.00;48.70
46932;DHT22;32670;51.464;11.964;2023-03-03T03:12:35;21.00;48.80
46932;DHT22;32670;51.464;11.964;2023-03-03T03:15:01;21.00;48.50
46932;DHT22;32670;51.464;11.964;2023-03-03T03:17:26;21.10;48.60
46932;DHT22;32670;51.464;11.964;2023-03-03T03:19:52;21.10;48.70
46932;DHT22;32670;51.464;11.964;2023-03-03T03:22:17;21.10;48.70
46932;DHT22;32670;51.464;11.964;2023-03-03T03:24:43;21.10;48.70
46932;DHT22;32670;51.464;11.964;2023-03-03T03:27:09;21.10;48.80
46932;DHT22;32670;51.464;11.964;2023-03-03T03:29:34;21.10;48.80
46932;DHT22;32670;51.464;11.964;2023-03-03T03:32:00;21.10;48.90
46932;DHT22;32670;51.464;11.964;2023-03-03T03:34:25;21.10;48.80
46932;DHT22;32670;51.464;11.964;2023-03-03T03:36:51;21.10;48.90
46932;DHT22;32670;51.464;11.964;2023-03-03T03:39:16;21.10;48.80
46932;DHT22;32670;51.464;11.964;2023-03-03T03:41:41;21.10;48.80
46932;DHT22;32670;51.464;11.964;2023-03-03T03:44:07;21.10;48.80
46932;DHT22;32670;51.464;11.964;2023-03-03T03:46:32;21.10;48.80
46932;DHT22;32670;51.464;11.964;2023-03-03T03:48:58;21.10;48.80
46932;DHT22;32670;51.464;11.964;2023-03-03T03:51:23;21.10;49.00
46932;DHT22;32670;51.464;11.964;2023-03-03T03:53:52;21.10;48.90
46932;DHT22;32670;51.464;11.964;2023-03-03T03:56:17;21.10;49.00
46932;DHT22;32670;51.464;11.964;2023-03-03T03:58:43;21.10;49.00
46932;DHT22;32670;51.464;11.964;2023-03-03T04:01:08;21.10;49.00
46932;DHT22;32670;51.464;11.964;2023-03-03T04:03:34;21.10;48.80
46932;DHT22;32670;51.464;11.964;2023-03-03T04:05:59;21.10;49.00
46932;DHT22;32670;51.464;11.964;2023-03-03T04:08:25;21.10;49.00
46932;DHT22;32670;51.464;11.964;2023-03-03T04:10:50;21.20;49.00
46932;DHT22;32670;51.464;11.964;2023-03-03T04:13:16;21.10;49.10
46932;DHT22;32670;51.464;11.964;2023-03-03T04:15:41;21.10;49.00
46932;DHT22;32670;51.464;11.964;2023-03-03T04:18:07;21.20;49.20
46932;DHT22;32670;51.464;11.964;2023-03-03T04:20:33;21.20;49.20
46932;DHT22;32670;51.464;11.964;2023-03-03T04:22:58;21.20;49.10
46932;DHT22;32670;51.464;11.964;2023-03-03T04:25:24;21.20;49.20
46932;DHT22;32670;51.464;11.964;2023-03-03T04:27:50;21.20;49.20
46932;DHT22;32670;51.464;11.964;2023-03-03T04:30:17;21.20;49.20
46932;DHT22;32670;51.464;11.964;2023-03-03T04:32:42;21.20;49.40
46932;DHT22;32670;51.464;11.964;2023-03-03T04:35:09;21.20;49.20
46932;DHT22;32670;51.464;11.964;2023-03-03T04:37:35;21.20;49.20
46932;DHT22;32670;51.464;11.964;2023-03-03T04:40:02;21.20;49.20
46932;DHT22;32670;51.464;11.964;2023-03-03T04:42:27;21.20;49.20
46932;DHT22;32670;51.464;11.964;2023-03-03T04:44:53;21.20;48.10
46932;DHT22;32670;51.464;11.964;2023-03-03T04:47:18;21.20;47.70
46932;DHT22;32670;51.464;11.964;2023-03-03T04:49:47;21.20;48.10
46932;DHT22;32670;51.464;11.964;2023-03-03T04:52:12;21.20;48.60
46932;DHT22;32670;51.464;11.964;2023-03-03T04:54:38;21.20;48.60
46932;DHT22;32670;51.464;11.964;2023-03-03T04:57:03;21.20;48.60
46932;DHT22;32670;51.464;11.964;2023-03-03T04:59:29;21.20;48.80
46932;DHT22;32670;51.464;11.964;2023-03-03T05:01:54;21.20;48.80
46932;DHT22;32670;51.464;11.964;2023-03-03T05:04:20;21.20;49.00
46932;DHT22;32670;51.464;11.964;2023-03-03T05:06:45;21.20;49.00
46932;DHT22;32670;51.464;11.964;2023-03-03T05:09:10;21.30;49.20
46932;DHT22;32670;51.464;11.964;2023-03-03T05:11:36;21.20;49.10
46932;DHT22;32670;51.464;11.964;2023-03-03T05:14:01;21.20;49.20
46932;DHT22;32670;51.464;11.964;2023-03-03T05:16:27;21.20;49.10
46932;DHT22;32670;51.464;11.964;2023-03-03T05:18:53;21.20;49.20
46932;DHT22;32670;51.464;11.964;2023-03-03T05:21:18;21.20;49.20
46932;DHT22;32670;51.464;11.964;2023-03-03T05:23:44;21.20;49.20
46932;DHT22;32670;51.464;11.964;2023-03-03T05:26:09;21.20;49.20
46932;DHT22;32670;51.464;11.964;2023-03-03T05:28:35;21.20;49.30
46932;DHT22;32670;51.464;11.964;2023-03-03T05:31:00;21.20;49.30
46932;DHT22;32670;51.464;11.964;2023-03-03T05:33:26;21.20;49.30
46932;DHT22;32670;51.464;11.964;2023-03-03T05:35:55;21.20;49.40
46932;DHT22;32670;51.464;11.964;2023-03-03T05:38:21;21.20;49.50
46932;DHT22;32670;51.464;11.964;2023-03-03T05:40:47;21.20;49.50
46932;DHT22;32670;51.464;11.964;2023-03-03T05:43:12;21.20;49.50
46932;DHT22;32670;51.464;11.964;2023-03-03T05:45:38;21.20;49.50
46932;DHT22;32670;51.464;11.964;2023-03-03T05:48:03;21.20;49.50
46932;DHT22;32670;51.464;11.964;2023-03-03T05:50:30;21.20;49.60
46932;DHT22;32670;51.464;11.964;2023-03-03T05:52:55;21.20;49.60
46932;DHT22;32670;51.464;11.964;2023-03-03T05:55:21;21.20;49.50
46932;DHT22;32670;51.464;11.964;2023-03-03T05:57:47;21.20;49.60
46932;DHT22;32670;51.464;11.964;2023-03-03T06:00:13;21.20;49.70
46932;DHT22;32670;51.464;11.964;2023-03-03T06:02:39;21.20;49.70
46932;DHT22;32670;51.464;11.964;2023-03-03T06:05:06;21.20;49.70
46932;DHT22;32670;51.464;11.964;2023-03-03T06:07:31;21.20;49.90
46932;DHT22;32670;51.464;11.964;2023-03-03T06:09:57;21.20;49.90
46932;DHT22;32670;51.464;11.964;2023-03-03T06:12:22;21.20;49.90
46932;DHT22;32670;51.464;11.964;2023-03-03T06:14:48;21.20;49.90
46932;DHT22;32670;51.464;11.964;2023-03-03T06:17:13;21.20;49.90
46932;DHT22;32670;51.464;11.964;2023-03-03T06:19:39;21.20;50.00
46932;DHT22;32670;51.464;11.964;2023-03-03T06:22:06;21.20;50.00
46932;DHT22;32670;51.464;11.964;2023-03-03T06:24:31;21.20;50.20
46932;DHT22;32670;51.464;11.964;2023-03-03T06:26:57;21.20;50.10
46932;DHT22;32670;51.464;11.964;2023-03-03T06:29:23;21.20;50.50
46932;DHT22;32670;51.464;11.964;2023-03-03T06:31:48;21.20;49.90
46932;DHT22;32670;51.464;11.964;2023-03-03T06:34:14;21.20;48.80
46932;DHT22;32670;51.464;11.964;2023-03-03T06:36:39;21.20;49.70
46932;DHT22;32670;51.464;11.964;2023-03-03T06:39:05;21.10;42.10
46932;DHT22;32670;51.464;11.964;2023-03-03T06:41:30;20.60;35.30
46932;DHT22;32670;51.464;11.964;2023-03-03T06:43:56;20.00;33.70
46932;DHT22;32670;51.464;11.964;2023-03-03T06:46:22;19.60;32.90
46932;DHT22;32670;51.464;11.964;2023-03-03T06:48:48;19.10;32.50
46932;DHT22;32670;51.464;11.964;2023-03-03T06:53:53;18.50;32.20
46932;DHT22;32670;51.464;11.964;2023-03-03T06:56:19;18.20;32.20
46932;DHT22;32670;51.464;11.964;2023-03-03T06:58:44;18.10;32.70
46932;DHT22;32670;51.464;11.964;2023-03-03T07:01:15;17.90;32.90
46932;DHT22;32670;51.464;11.964;2023-03-03T07:03:41;17.70;33.00
46932;DHT22;32670;51.464;11.964;2023-03-03T07:06:32;17.60;33.10
46932;DHT22;32670;51.464;11.964;2023-03-03T07:08:58;17.50;32.80
46932;DHT22;32670;51.464;11.964;2023-03-03T07:11:23;17.40;33.30
46932;DHT22;32670;51.464;11.964;2023-03-03T07:13:51;17.30;33.30
46932;DHT22;32670;51.464;11.964;2023-03-03T07:16:18;17.30;33.20
46932;DHT22;32670;51.464;11.964;2023-03-03T07:18:53;17.20;33.00
46932;DHT22;32670;51.464;11.964;2023-03-03T07:21:24;17.10;33.80
46932;DHT22;32670;51.464;11.964;2023-03-03T07:23:52;16.90;33.50
46932;DHT22;32670;51.464;11.964;2023-03-03T07:26:20;16.80;33.90
46932;DHT22;32670;51.464;11.964;2023-03-03T07:31:40;16.80;35.20
46932;DHT22;32670;51.464;11.964;2023-03-03T07:34:28;17.20;36.00
46932;DHT22;32670;51.464;11.964;2023-03-03T07:37:01;17.50;36.60
46932;DHT22;32670;51.464;11.964;2023-03-03T07:39:36;17.80;36.30
46932;DHT22;32670;51.464;11.964;2023-03-03T07:42:14;18.00;36.50
46932;DHT22;32670;51.464;11.964;2023-03-03T07:44:39;18.20;36.70
46932;DHT22;32670;51.464;11.964;2023-03-03T07:47:18;18.30;36.80
46932;DHT22;32670;51.464;11.964;2023-03-03T07:49:45;18.50;37.00
46932;DHT22;32670;51.464;11.964;2023-03-03T07:52:40;18.60;37.10
46932;DHT22;32670;51.464;11.964;2023-03-03T07:55:25;18.70;37.30
46932;DHT22;32670;51.464;11.964;2023-03-03T07:57:53;18.70;37.50
46932;DHT22;32670;51.464;11.964;2023-03-03T08:03:10;18.90;37.80
46932;DHT22;32670;51.464;11.964;2023-03-03T08:05:45;18.90;37.80
46932;DHT22;32670;51.464;11.964;2023-03-03T08:08:27;18.90;37.90
46932;DHT22;32670;51.464;11.964;2023-03-03T08:10:55;19.00;38.00
46932;DHT22;32670;51.464;11.964;2023-03-03T08:16:01;19.00;38.20
46932;DHT22;32670;51.464;11.964;2023-03-03T08:18:34;19.10;38.30
46932;DHT22;32670;51.464;11.964;2023-03-03T08:21:12;19.10;38.40
46932;DHT22;32670;51.464;11.964;2023-03-03T08:23:38;19.10;38.40
46932;DHT22;32670;51.464;11.964;2023-03-03T08:26:04;19.20;38.60
46932;DHT22;32670;51.464;11.964;2023-03-03T08:28:29;19.20;38.70
46932;DHT22;32670;51.464;11.964;2023-03-03T08:30:55;19.20;38.70
46932;DHT22;32670;51.464;11.964;2023-03-03T08:33:20;19.20;38.70
46932;DHT22;32670;51.464;11.964;2023-03-03T08:35:46;19.20;38.80
46932;DHT22;32670;51.464;11.964;2023-03-03T08:38:14;19.20;38.80
46932;DHT22;32670;51.464;11.964;2023-03-03T08:40:41;19.30;39.00
46932;DHT22;32670;51.464;11.964;2023-03-03T08:43:06;19.30;39.00
46932;DHT22;32670;51.464;11.964;2023-03-03T08:45:33;19.30;39.00
46932;DHT22;32670;51.464;11.964;2023-03-03T08:47:59;19.30;39.10
46932;DHT22;32670;51.464;11.964;2023-03-03T08:50:28;19.30;39.20
46932;DHT22;32670;51.464;11.964;2023-03-03T08:52:54;19.40;39.30
46932;DHT22;32670;51.464;11.964;2023-03-03T08:55:20;19.30;39.80
46932;DHT22;32670;51.464;11.964;2023-03-03T08:57:46;19.40;39.30
46932;DHT22;32670;51.464;11.964;2023-03-03T09:00:14;19.40;39.40
46932;DHT22;32670;51.464;11.964;2023-03-03T09:02:40;19.40;39.40
46932;DHT22;32670;51.464;11.964;2023-03-03T09:05:06;19.50;39.50
46932;DHT22;32670;51.464;11.964;2023-03-03T09:07:32;19.40;39.50
46932;DHT22;32670;51.464;11.964;2023-03-03T09:09:57;19.40;39.50
46932;DHT22;32670;51.464;11.964;2023-03-03T09:12:41;19.40;39.50
46932;DHT22;32670;51.464;11.964;2023-03-03T09:20:47;19.50;39.60
46932;DHT22;32670;51.464;11.964;2023-03-03T09:23:35;19.50;39.60
46932;DHT22;32670;51.464;11.964;2023-03-03T09:28:39;19.50;39.70
46932;DHT22;32670;51.464;11.964;2023-03-03T09:31:23;19.50;39.70
46932;DHT22;32670;51.464;11.964;2023-03-03T09:33:49;19.50;39.70
46932;DHT22;32670;51.464;11.964;2023-03-03T09:36:26;19.50;39.70
46932;DHT22;32670;51.464;11.964;2023-03-03T09:38:54;19.50;39.70
46932;DHT22;32670;51.464;11.964;2023-03-03T09:44:21;19.50;39.70
46932;DHT22;32670;51.464;11.964;2023-03-03T09:49:47;19.50;39.80
46932;DHT22;32670;51.464;11.964;2023-03-03T09:52:25;19.50;39.80
46932;DHT22;32670;51.464;11.964;2023-03-03T10:03:10;19.60;39.90
46932;DHT22;32670;51.464;11.964;2023-03-03T10:06:00;19.60;40.00
46932;DHT22;32670;51.464;11.964;2023-03-03T10:14:06;19.60;40.00
46932;DHT22;32670;51.464;11.964;2023-03-03T10:16:41;19.60;40.00
46932;DHT22;32670;51.464;11.964;2023-03-03T10:19:33;19.60;40.00
46932;DHT22;32670;51.464;11.964;2023-03-03T10:22:17;19.60;40.10
46932;DHT22;32670;51.464;11.964;2023-03-03T10:25:15;19.60;40.20
46932;DHT22;32670;51.464;11.964;2023-03-03T10:32:51;19.60;40.10
46932;DHT22;32670;51.464;11.964;2023-03-03T10:38:11;19.60;40.10
46932;DHT22;32670;51.464;11.964;2023-03-03T10:46:04;19.60;40.20
46932;DHT22;32670;51.464;11.964;2023-03-03T10:54:25;19.60;40.20
46932;DHT22;32670;51.464;11.964;2023-03-03T10:56:58;19.70;40.20
46932;DHT22;32670;51.464;11.964;2023-03-03T10:59:46;19.60;40.20
46932;DHT22;32670;51.464;11.964;2023-03-03T11:02:26;19.70;40.20
46932;DHT22;32670;51.464;11.964;2023-03-03T11:05:18;19.60;40.10
46932;DHT22;32670;51.464;11.964;2023-03-03T11:07:57;19.70;40.20
46932;DHT22;32670;51.464;11.964;2023-03-03T11:10:39;19.70;40.20
46932;DHT22;32670;51.464;11.964;2023-03-03T11:13:15;19.70;40.20
46932;DHT22;32670;51.464;11.964;2023-03-03T11:15:46;19.70;40.20
46932;DHT22;32670;51.464;11.964;2023-03-03T11:18:44;19.70;40.30
46932;DHT22;32670;51.464;11.964;2023-03-03T11:21:30;19.70;40.20
46932;DHT22;32670;51.464;11.964;2023-03-03T11:24:14;19.70;40.20
46932;DHT22;32670;51.464;11.964;2023-03-03T11:26:54;19.70;40.20
46932;DHT22;32670;51.464;11.964;2023-03-03T11:29:35;19.70;40.20
46932;DHT22;32670;51.464;11.964;2023-03-03T11:35:08;19.70;40.80
46932;DHT22;32670;51.464;11.964;2023-03-03T11:38:10;19.70;40.20
46932;DHT22;32670;51.464;11.964;2023-03-03T11:41:15;19.70;40.20
46932;DHT22;32670;51.464;11.964;2023-03-03T11:43:56;19.70;40.20
46932;DHT22;32670;51.464;11.964;2023-03-03T11:49:47;19.70;40.30
46932;DHT22;32670;51.464;11.964;2023-03-03T11:52:37;19.70;40.30
46932;DHT22;32670;51.464;11.964;2023-03-03T11:55:29;19.70;40.30
46932;DHT22;32670;51.464;11.964;2023-03-03T11:58:11;19.70;40.20
46932;DHT22;32670;51.464;11.964;2023-03-03T12:00:53;19.70;40.30
46932;DHT22;32670;51.464;11.964;2023-03-03T12:03:32;19.70;40.30
46932;DHT22;32670;51.464;11.964;2023-03-03T12:06:30;19.80;40.30
46932;DHT22;32670;51.464;11.964;2023-03-03T12:09:10;19.70;40.30
46932;DHT22;32670;51.464;11.964;2023-03-03T12:11:48;19.70;40.30
46932;DHT22;32670;51.464;11.964;2023-03-03T12:14:40;19.70;40.30
46932;DHT22;32670;51.464;11.964;2023-03-03T12:17:31;19.80;40.30
46932;DHT22;32670;51.464;11.964;2023-03-03T12:20:11;19.70;40.30
46932;DHT22;32670;51.464;11.964;2023-03-03T12:23:14;19.70;40.90
46932;DHT22;32670;51.464;11.964;2023-03-03T12:25:58;19.70;40.30
46932;DHT22;32670;51.464;11.964;2023-03-03T12:28:34;19.80;40.40
46932;DHT22;32670;51.464;11.964;2023-03-03T12:34:20;19.70;40.60
46932;DHT22;32670;51.464;11.964;2023-03-03T12:37:14;19.80;40.60
46932;DHT22;32670;51.464;11.964;2023-03-03T12:40:04;19.80;40.50
46932;DHT22;32670;51.464;11.964;2023-03-03T12:43:00;19.80;40.50
46932;DHT22;32670;51.464;11.964;2023-03-03T12:46:04;19.80;40.60
46932;DHT22;32670;51.464;11.964;2023-03-03T12:56:37;19.80;40.50
46932;DHT22;32670;51.464;11.964;2023-03-03T12:59:09;19.70;40.40
46932;DHT22;32670;51.464;11.964;2023-03-03T13:04:39;19.80;40.50
46932;DHT22;32670;51.464;11.964;2023-03-03T13:12:31;19.80;40.50
46932;DHT22;32670;51.464;11.964;2023-03-03T13:17:47;19.80;40.50
46932;DHT22;32670;51.464;11.964;2023-03-03T13:20:37;19.80;40.50
46932;DHT22;32670;51.464;11.964;2023-03-03T13:26:10;19.80;40.50
46932;DHT22;32670;51.464;11.964;2023-03-03T13:28:46;19.80;40.50
46932;DHT22;32670;51.464;11.964;2023-03-03T13:31:20;19.80;40.50
46932;DHT22;32670;51.464;11.964;2023-03-03T13:33:56;19.80;40.50
46932;DHT22;32670;51.464;11.964;2023-03-03T13:36:29;19.80;40.50
46932;DHT22;32670;51.464;11.964;2023-03-03T13:39:03;19.80;40.50
46932;DHT22;32670;51.464;11.964;2023-03-03T13:41:45;19.80;40.50
46932;DHT22;32670;51.464;11.964;2023-03-03T13:44:43;19.80;40.50
46932;DHT22;32670;51.464;11.964;2023-03-03T13:47:21;19.80;40.50
46932;DHT22;32670;51.464;11.964;2023-03-03T13:50:14;19.80;40.50
46932;DHT22;32670;51.464;11.964;2023-03-03T13:56:05;19.80;40.50
46932;DHT22;32670;51.464;11.964;2023-03-03T13:58:45;19.80;40.50
46932;DHT22;32670;51.464;11.964;2023-03-03T14:01:21;19.80;40.50
46932;DHT22;32670;51.464;11.964;2023-03-03T14:06:21;19.80;40.50
46932;DHT22;32670;51.464;11.964;2023-03-03T14:09:19;19.80;41.10
46932;DHT22;32670;51.464;11.964;2023-03-03T14:11:59;19.80;40.50
46932;DHT22;32670;51.464;11.964;2023-03-03T14:14:37;19.90;40.60
46932;DHT22;32670;51.464;11.964;2023-03-03T14:17:31;19.80;40.50
46932;DHT22;32670;51.464;11.964;2023-03-03T14:20:27;19.90;40.60
46932;DHT22;32670;51.464;11.964;2023-03-03T14:23:02;19.80;40.50
46932;DHT22;32670;51.464;11.964;2023-03-03T14:28:16;19.90;40.60
46932;DHT22;32670;51.464;11.964;2023-03-03T14:30:43;19.90;40.50
46932;DHT22;32670;51.464;11.964;2023-03-03T14:35:40;19.90;40.60
46932;DHT22;32670;51.464;11.964;2023-03-03T14:38:14;19.90;40.60
46932;DHT22;32670;51.464;11.964;2023-03-03T14:40:42;19.90;40.60
46932;DHT22;32670;51.464;11.964;2023-03-03T14:43:22;19.90;40.60
46932;DHT22;32670;51.464;11.964;2023-03-03T14:45:49;19.90;40.60
46932;DHT22;32670;51.464;11.964;2023-03-03T14:48:17;19.90;40.60
46932;DHT22;32670;51.464;11.964;2023-03-03T14:50:51;19.90;40.60
46932;DHT22;32670;51.464;11.964;2023-03-03T14:55:45;19.90;40.60
46932;DHT22;32670;51.464;11.964;2023-03-03T14:58:33;19.90;40.60
46932;DHT22;32670;51.464;11.964;2023-03-03T15:03:58;19.90;40.60
46932;DHT22;32670;51.464;11.964;2023-03-03T15:06:41;19.90;40.60
46932;DHT22;32670;51.464;11.964;2023-03-03T15:09:31;19.90;40.60
46932;DHT22;32670;51.464;11.964;2023-03-03T15:12:20;19.90;40.60
46932;DHT22;32670;51.464;11.964;2023-03-03T15:15:12;19.90;40.60
46932;DHT22;32670;51.464;11.964;2023-03-03T15:17:52;19.90;40.60
46932;DHT22;32670;51.464;11.964;2023-03-03T15:23:20;19.90;40.60
46932;DHT22;32670;51.464;11.964;2023-03-03T15:42:47;19.90;40.70
46932;DHT22;32670;51.464;11.964;2023-03-03T15:45:33;19.90;40.70
46932;DHT22;32670;51.464;11.964;2023-03-03T15:54:20;19.90;40.70
46932;DHT22;32670;51.464;11.964;2023-03-03T15:56:54;19.90;40.70
46932;DHT22;32670;51.464;11.964;2023-03-03T15:59:41;19.90;40.70
46932;DHT22;32670;51.464;11.964;2023-03-03T16:02:21;19.90;41.50
46932;DHT22;32670;51.464;11.964;2023-03-03T16:05:12;19.90;41.20
46932;DHT22;32670;51.464;11.964;2023-03-03T16:10:35;19.90;41.00
46932;DHT22;32670;51.464;11.964;2023-03-03T16:18:27;20.00;41.30
46932;DHT22;32670;51.464;11.964;2023-03-03T16:24:22;19.90;41.10
46932;DHT22;32670;51.464;11.964;2023-03-03T16:27:18;20.00;41.10
46932;DHT22;32670;51.464;11.964;2023-03-03T16:29:57;20.00;41.10
46932;DHT22;32670;51.464;11.964;2023-03-03T16:34:59;20.00;41.00
46932;DHT22;32670;51.464;11.964;2023-03-03T16:38:05;20.00;41.30
46932;DHT22;32670;51.464;11.964;2023-03-03T16:48:53;20.00;41.10
46932;DHT22;32670;51.464;11.964;2023-03-03T16:51:38;20.00;41.10
46932;DHT22;32670;51.464;11.964;2023-03-03T16:54:19;20.00;41.10
46932;DHT22;32670;51.464;11.964;2023-03-03T16:57:15;20.00;41.00
46932;DHT22;32670;51.464;11.964;2023-03-03T16:59:54;20.00;41.00
46932;DHT22;32670;51.464;11.964;2023-03-03T17:05:35;20.00;41.00
46932;DHT22;32670;51.464;11.964;2023-03-03T17:11:16;20.00;41.00
46932;DHT22;32670;51.464;11.964;2023-03-03T17:19:54;20.00;41.00
46932;DHT22;32670;51.464;11.964;2023-03-03T17:22:42;20.00;41.00
46932;DHT22;32670;51.464;11.964;2023-03-03T17:25:40;20.00;41.00
46932;DHT22;32670;51.464;11.964;2023-03-03T17:28:39;20.00;41.00
46932;DHT22;32670;51.464;11.964;2023-03-03T17:34:06;20.00;41.00
46932;DHT22;32670;51.464;11.964;2023-03-03T17:36:58;20.00;41.00
46932;DHT22;32670;51.464;11.964;2023-03-03T17:40:02;20.00;41.00
46932;DHT22;32670;51.464;11.964;2023-03-03T17:42:35;20.00;41.00
46932;DHT22;32670;51.464;11.964;2023-03-03T17:45:11;20.00;41.00
46932;DHT22;32670;51.464;11.964;2023-03-03T17:50:39;20.00;40.90
46932;DHT22;32670;51.464;11.964;2023-03-03T17:53:26;20.00;41.80
46932;DHT22;32670;51.464;11.964;2023-03-03T17:58:49;20.00;41.30
46932;DHT22;32670;51.464;11.964;2023-03-03T18:01:39;20.00;41.20
46932;DHT22;32670;51.464;11.964;2023-03-03T18:09:23;20.00;41.20
46932;DHT22;32670;51.464;11.964;2023-03-03T18:12:14;20.00;41.10
46932;DHT22;32670;51.464;11.964;2023-03-03T18:17:51;20.00;41.10
46932;DHT22;32670;51.464;11.964;2023-03-03T18:23:42;20.00;41.10
46932;DHT22;32670;51.464;11.964;2023-03-03T18:26:45;20.00;41.00
46932;DHT22;32670;51.464;11.964;2023-03-03T18:32:00;20.00;41.20
46932;DHT22;32670;51.464;11.964;2023-03-03T18:34:39;20.00;41.10
46932;DHT22;32670;51.464;11.964;2023-03-03T18:42:41;20.00;41.10
46932;DHT22;32670;51.464;11.964;2023-03-03T18:48:09;20.00;41.00
46932;DHT22;32670;51.464;11.964;2023-03-03T18:50:39;20.00;41.00
46932;DHT22;32670;51.464;11.964;2023-03-03T18:53:29;20.00;41.10
46932;DHT22;32670;51.464;11.964;2023-03-03T18:56:01;20.00;41.00
46932;DHT22;32670;51.464;11.964;2023-03-03T18:58:28;20.00;41.00
46932;DHT22;32670;51.464;11.964;2023-03-03T19:05:55;20.00;41.00
46932;DHT22;32670;51.464;11.964;2023-03-03T19:08:29;20.00;41.10
46932;DHT22;32670;51.464;11.964;2023-03-03T19:11:30;20.00;41.00
46932;DHT22;32670;51.464;11.964;2023-03-03T19:16:52;20.00;41.00
46932;DHT22;32670;51.464;11.964;2023-03-03T19:19:24;20.00;41.00
46932;DHT22;32670;51.464;11.964;2023-03-03T19:22:13;20.00;41.00
46932;DHT22;32670;51.464;11.964;2023-03-03T19:24:37;20.00;41.80
46932;DHT22;32670;51.464;11.964;2023-03-03T19:27:14;20.10;42.10